Brooklyn Center, Minnesota
Current Conditions -  °F | °C
As of 4:05 PM on Monday 22 Dec 2014 (Local Time) from KMIC Reporting Station
Haze Haze  
Wind Chill: 32°   Ceiling: 1000
Heat Index: 37°   Visibility: 2.5mi
Dew Point: 35°   Wind: 7mph
Humidity: 93%   Direction: 100°E
Pressure: 29.59"   Gusts: NA
Location:  45.07°N, 93.31°W
Report Text: KMIC 222205Z 10006KT 2 1/2SM BR OVC010 03/02 A2959 RMK AO2 CIG 008V013 T00280017
Loading
Personal Weather Stations






























Interactive Weather Map New forecast layout! Learn more

10-Day Weather Forecast

Advertisements
Track Severe Weather on mobile